Time;durP1;ratioP1;P1;durP2;ratioP2;P2;SDS_P1;SDS_P2;PMS_P1;PMS_P2;Temp;Humidity;BMP_temperature;BMP_pressure;BME280_temperature;BME280_humidity;BME280_pressure;Samples;Min_cycle;Max_cycle;Signal;HPM_P1;HPM_P2
2023/07/17 00:00:44;;;;;;;9.18;3.03;;;17.00;82.50;;;;;;5059630;28;20039;-49
2023/07/17 00:03:11;;;;;;;11.75;3.88;;;17.10;82.60;;;;;;5069394;28;20028;-50
2023/07/17 00:05:38;;;;;;;8.88;3.85;;;17.00;82.50;;;;;;5053124;28;20025;-48
2023/07/17 00:08:06;;;;;;;11.40;2.83;;;17.00;82.80;;;;;;5054983;28;20028;-48
2023/07/17 00:10:31;;;;;;;10.38;4.45;;;17.00;82.90;;;;;;5071846;28;20090;-49
2023/07/17 00:12:57;;;;;;;12.00;3.97;;;17.00;83.00;;;;;;5057441;28;20033;-52
2023/07/17 00:15:27;;;;;;;8.20;2.53;;;17.00;83.10;;;;;;5054574;28;20070;-51
2023/07/17 00:17:54;;;;;;;11.30;3.47;;;17.10;83.20;;;;;;5073762;28;20025;-49
2023/07/17 00:20:20;;;;;;;9.40;3.45;;;17.00;83.40;;;;;;5072229;28;20055;-51
2023/07/17 00:22:47;;;;;;;11.23;3.80;;;16.90;83.40;;;;;;5054559;28;20036;-49
2023/07/17 00:25:14;;;;;;;8.00;3.38;;;16.90;83.60;;;;;;5070882;28;20029;-48
2023/07/17 00:27:40;;;;;;;9.43;3.97;;;16.90;83.70;;;;;;5070934;28;20032;-48
2023/07/17 00:30:12;;;;;;;15.50;4.60;;;16.90;83.60;;;;;;5053393;28;20048;-48
2023/07/17 00:32:39;;;;;;;6.55;3.08;;;16.90;83.90;;;;;;5068742;28;20064;-48
2023/07/17 00:35:10;;;;;;;10.65;3.88;;;16.80;84.00;;;;;;5073315;28;20028;-53
2023/07/17 00:37:35;;;;;;;10.43;3.25;;;16.80;83.80;;;;;;5071863;28;20040;-48
2023/07/17 00:40:04;;;;;;;8.18;3.53;;;16.70;83.90;;;;;;5066618;28;20071;-49
2023/07/17 00:42:31;;;;;;;8.38;3.30;;;16.80;84.10;;;;;;5060419;28;20091;-48
2023/07/17 00:44:57;;;;;;;11.52;3.33;;;16.80;84.20;;;;;;5053393;28;20362;-48
2023/07/17 00:47:28;;;;;;;5.10;3.15;;;16.80;84.20;;;;;;5071214;28;20579;-48
2023/07/17 00:49:55;;;;;;;10.90;3.72;;;16.70;84.30;;;;;;5051057;28;20509;-48
2023/07/17 00:52:22;;;;;;;9.82;4.28;;;16.80;84.40;;;;;;5053053;28;20021;-49
2023/07/17 00:54:50;;;;;;;10.35;3.55;;;16.70;84.50;;;;;;5062211;28;20457;-53
2023/07/17 00:57:18;;;;;;;8.82;3.72;;;16.70;84.60;;;;;;5053923;28;20028;-47
2023/07/17 00:59:45;;;;;;;9.75;3.72;;;16.80;84.80;;;;;;5073259;28;20469;-49
2023/07/17 01:02:13;;;;;;;8.70;3.45;;;16.80;84.80;;;;;;5072026;28;20414;-48
2023/07/17 01:04:47;;;;;;;10.88;3.83;;;16.80;84.90;;;;;;5072502;28;20416;-49
2023/07/17 01:07:15;;;;;;;8.32;3.83;;;16.80;84.90;;;;;;5051222;28;20059;-48
2023/07/17 01:09:42;;;;;;;9.93;3.45;;;16.80;84.80;;;;;;5068354;28;20032;-48
2023/07/17 01:12:09;;;;;;;12.38;3.55;;;16.80;84.60;;;;;;5055584;28;20612;-48
2023/07/17 01:14:39;;;;;;;12.15;3.20;;;16.60;84.70;;;;;;5052730;28;20455;-46
2023/07/17 01:17:06;;;;;;;7.68;3.13;;;16.70;84.70;;;;;;5055095;28;20115;-46
2023/07/17 01:19:35;;;;;;;6.05;3.42;;;16.70;84.80;;;;;;5065329;28;20098;-46
2023/07/17 01:22:08;;;;;;;7.47;3.55;;;16.70;85.00;;;;;;5072390;28;20024;-47
2023/07/17 01:24:35;;;;;;;8.80;3.10;;;16.80;84.90;;;;;;5069897;28;20029;-47
2023/07/17 01:27:02;;;;;;;8.95;3.28;;;16.70;85.20;;;;;;5051654;28;20025;-46
2023/07/17 01:29:29;;;;;;;7.88;2.83;;;16.70;85.30;;;;;;5048575;28;20565;-46
2023/07/17 01:31:58;;;;;;;12.30;3.72;;;16.70;85.40;;;;;;5066612;28;20064;-48
2023/07/17 01:34:25;;;;;;;9.57;3.33;;;16.70;85.60;;;;;;5053982;28;20028;-47
2023/07/17 01:36:54;;;;;;;6.32;2.97;;;16.60;85.60;;;;;;5072185;28;20419;-46
2023/07/17 01:39:21;;;;;;;8.13;3.17;;;16.60;85.80;;;;;;5071136;28;20107;-46
2023/07/17 01:41:48;;;;;;;8.27;3.58;;;16.60;86.00;;;;;;5064044;28;20037;-48
2023/07/17 01:44:15;;;;;;;7.80;2.75;;;16.60;86.10;;;;;;5056048;28;20043;-46
2023/07/17 01:46:42;;;;;;;8.90;3.05;;;16.60;86.20;;;;;;5049810;28;20040;-46
2023/07/17 01:49:08;;;;;;;8.65;3.30;;;16.50;86.40;;;;;;5053702;28;20054;-46
2023/07/17 01:51:35;;;;;;;9.20;3.47;;;16.50;86.40;;;;;;5072675;28;20387;-49
2023/07/17 01:54:02;;;;;;;9.77;3.92;;;16.40;86.20;;;;;;5059380;28;20462;-47
2023/07/17 01:56:29;;;;;;;11.52;4.70;;;16.40;86.20;;;;;;5059813;28;20035;-48
2023/07/17 01:58:56;;;;;;;15.38;4.18;;;16.40;86.40;;;;;;5061795;28;20361;-49
2023/07/17 02:01:23;;;;;;;8.63;4.18;;;16.40;86.30;;;;;;5062465;28;20040;-47
2023/07/17 02:03:50;;;;;;;7.53;3.30;;;16.40;86.30;;;;;;5071362;28;20039;-47
2023/07/17 02:06:16;;;;;;;6.60;3.20;;;16.30;86.30;;;;;;5062238;28;20364;-46
2023/07/17 02:08:43;;;;;;;12.05;3.85;;;16.40;86.20;;;;;;5048944;28;20445;-52
2023/07/17 02:11:09;;;;;;;10.95;4.30;;;16.30;86.20;;;;;;5054029;28;20063;-46
2023/07/17 02:13:35;;;;;;;11.98;4.03;;;16.30;86.40;;;;;;5071351;28;20105;-46
2023/07/17 02:16:05;;;;;;;12.50;4.72;;;16.30;86.60;;;;;;5067350;28;20028;-49
2023/07/17 02:18:32;;;;;;;10.48;4.45;;;16.30;86.70;;;;;;5067526;28;20017;-46
2023/07/17 02:20:59;;;;;;;12.65;4.82;;;16.40;87.00;;;;;;5068775;28;20178;-47
2023/07/17 02:23:26;;;;;;;7.15;4.07;;;16.40;87.00;;;;;;5052080;28;20024;-46
2023/07/17 02:25:51;;;;;;;8.45;4.50;;;16.40;87.10;;;;;;5054236;28;20097;-44
2023/07/17 02:28:18;;;;;;;11.52;4.47;;;16.30;87.30;;;;;;5071198;28;20166;-45
2023/07/17 02:30:48;;;;;;;9.38;4.50;;;16.30;87.70;;;;;;5069836;28;20174;-47
2023/07/17 02:33:17;;;;;;;12.02;5.22;;;16.40;88.10;;;;;;5049775;28;20025;-44
2023/07/17 02:35:44;;;;;;;10.50;5.00;;;16.40;88.10;;;;;;5066381;28;20037;-44
2023/07/17 02:38:11;;;;;;;9.93;5.13;;;16.40;88.20;;;;;;5072494;28;20035;-44
2023/07/17 02:40:38;;;;;;;8.88;4.85;;;16.40;88.40;;;;;;5075149;28;20029;-44
2023/07/17 02:43:06;;;;;;;10.93;4.72;;;16.40;88.40;;;;;;5057384;28;20090;-44
2023/07/17 02:45:32;;;;;;;9.07;5.13;;;16.40;88.40;;;;;;5073554;28;20020;-45
2023/07/17 02:47:57;;;;;;;13.30;5.07;;;16.40;88.30;;;;;;5074286;28;20492;-44
2023/07/17 02:50:24;;;;;;;7.88;4.70;;;16.40;88.20;;;;;;5055474;28;20072;-43
2023/07/17 02:52:51;;;;;;;8.82;5.20;;;16.40;88.20;;;;;;5073363;28;20464;-43
2023/07/17 02:55:18;;;;;;;11.30;4.45;;;16.40;88.20;;;;;;5075318;28;20397;-43
2023/07/17 02:57:45;;;;;;;9.32;4.18;;;16.30;88.40;;;;;;5055075;28;20029;-44
2023/07/17 03:00:14;;;;;;;10.70;4.90;;;16.30;88.40;;;;;;5072267;28;20028;-43
2023/07/17 03:02:43;;;;;;;10.18;4.75;;;16.40;88.40;;;;;;5060275;28;20029;-43
2023/07/17 03:05:11;;;;;;;8.60;4.53;;;16.30;88.10;;;;;;5055103;28;20033;-44
2023/07/17 03:07:40;;;;;;;7.25;4.32;;;16.30;88.20;;;;;;5067902;28;20094;-44
2023/07/17 03:10:12;;;;;;;7.82;4.70;;;16.30;88.00;;;;;;5060832;28;20532;-44
2023/07/17 03:12:41;;;;;;;13.30;4.90;;;16.20;87.90;;;;;;5055186;28;20037;-45
2023/07/17 03:15:09;;;;;;;9.20;4.43;;;16.20;88.00;;;;;;5061675;28;20032;-47
2023/07/17 03:17:36;;;;;;;10.10;5.35;;;16.20;88.00;;;;;;5069010;28;20032;-44
2023/07/17 03:20:08;;;;;;;10.07;4.03;;;16.20;87.80;;;;;;5065175;28;20544;-43
2023/07/17 03:22:35;;;;;;;7.43;4.35;;;16.20;87.60;;;;;;5064733;28;20032;-43
2023/07/17 03:25:05;;;;;;;11.82;4.18;;;16.20;87.50;;;;;;5072938;28;20071;-43
2023/07/17 03:27:33;;;;;;;8.63;3.97;;;16.20;87.70;;;;;;5074148;28;20436;-44
2023/07/17 03:30:00;;;;;;;10.00;4.22;;;16.20;87.70;;;;;;5069256;28;20032;-44
2023/07/17 03:32:36;;;;;;;8.35;3.88;;;16.20;87.60;;;;;;5070321;28;20126;-43
2023/07/17 03:35:11;;;;;;;9.27;3.42;;;16.20;87.60;;;;;;5063853;28;20029;-43
2023/07/17 03:37:38;;;;;;;11.50;4.13;;;16.10;87.60;;;;;;5071614;28;20024;-44
2023/07/17 03:40:05;;;;;;;7.95;3.63;;;16.10;87.60;;;;;;5073715;28;20031;-43
2023/07/17 03:42:32;;;;;;;8.27;4.32;;;16.10;87.60;;;;;;5070027;28;20123;-43
2023/07/17 03:44:59;;;;;;;7.43;4.35;;;16.10;87.60;;;;;;5056227;28;20029;-44
2023/07/17 03:47:26;;;;;;;11.02;5.13;;;15.90;87.80;;;;;;5073299;28;20044;-46
2023/07/17 03:49:55;;;;;;;7.03;3.60;;;15.90;88.00;;;;;;5072710;28;20091;-43
2023/07/17 03:52:22;;;;;;;8.77;4.25;;;15.90;88.00;;;;;;5061731;28;20370;-43
2023/07/17 03:54:49;;;;;;;9.80;4.97;;;16.00;87.90;;;;;;5053940;28;20037;-43
2023/07/17 03:57:16;;;;;;;6.68;3.95;;;15.90;88.10;;;;;;5073275;28;20434;-43
2023/07/17 03:59:54;;;;;;;8.93;4.25;;;16.00;88.00;;;;;;5068477;28;20024;-45
2023/07/17 04:02:21;;;;;;;11.30;3.75;;;16.00;87.70;;;;;;5055726;28;20040;-46
2023/07/17 04:04:51;;;;;;;8.40;3.90;;;16.00;87.50;;;;;;5072144;28;20029;-43
2023/07/17 04:07:18;;;;;;;7.47;3.72;;;15.90;87.50;;;;;;5073931;28;20388;-42
2023/07/17 04:09:45;;;;;;;8.70;3.70;;;15.90;87.20;;;;;;5061373;28;20040;-45
2023/07/17 04:12:11;;;;;;;7.00;3.50;;;15.90;87.30;;;;;;5071608;28;20089;-43
2023/07/17 04:14:38;;;;;;;6.78;3.00;;;15.90;87.10;;;;;;5064367;28;20025;-43
2023/07/17 04:17:07;;;;;;;10.95;3.28;;;15.90;87.10;;;;;;5066843;28;20032;-44
2023/07/17 04:19:35;;;;;;;8.15;3.10;;;16.00;86.80;;;;;;5053570;28;20091;-43
2023/07/17 04:22:01;;;;;;;9.15;3.15;;;15.90;86.60;;;;;;5069372;28;20082;-44
2023/07/17 04:24:27;;;;;;;8.35;2.83;;;15.90;86.20;;;;;;5058177;28;20041;-45
2023/07/17 04:26:54;;;;;;;11.13;4.32;;;15.90;86.20;;;;;;5072157;28;20028;-46
2023/07/17 04:29:22;;;;;;;8.35;4.00;;;15.90;86.00;;;;;;5057978;28;20109;-43
2023/07/17 04:31:49;;;;;;;9.88;4.30;;;15.90;86.00;;;;;;5066348;28;20438;-43
2023/07/17 04:34:15;;;;;;;6.55;2.53;;;15.90;85.90;;;;;;5071454;28;20032;-45
2023/07/17 04:36:41;;;;;;;8.18;3.17;;;15.90;85.90;;;;;;5069378;28;20028;-44
2023/07/17 04:39:08;;;;;;;6.43;3.33;;;15.90;85.50;;;;;;5071291;28;20025;-44
2023/07/17 04:41:36;;;;;;;5.35;2.60;;;16.00;85.90;;;;;;5072649;28;20029;-44
2023/07/17 04:44:02;;;;;;;6.40;2.83;;;16.00;85.30;;;;;;5070070;28;20362;-43
2023/07/17 04:46:30;;;;;;;8.90;2.97;;;16.00;85.40;;;;;;5071488;28;20181;-45
2023/07/17 04:48:57;;;;;;;5.65;2.83;;;16.00;85.20;;;;;;5072835;28;20036;-44
2023/07/17 04:51:25;;;;;;;7.25;3.05;;;16.00;84.90;;;;;;5067931;28;20058;-43
2023/07/17 04:53:52;;;;;;;7.63;2.88;;;16.00;84.90;;;;;;5065117;28;20063;-43
2023/07/17 04:56:19;;;;;;;7.53;2.95;;;16.00;84.90;;;;;;5071475;28;20089;-43
2023/07/17 04:58:46;;;;;;;8.02;2.95;;;16.00;84.60;;;;;;5070563;28;20024;-43
2023/07/17 05:01:12;;;;;;;7.75;3.28;;;16.00;84.80;;;;;;5067134;28;20031;-43
2023/07/17 05:03:40;;;;;;;11.07;3.33;;;16.00;84.60;;;;;;5068364;28;20024;-46
2023/07/17 05:06:06;;;;;;;5.93;2.63;;;16.00;84.80;;;;;;5055344;28;20036;-44
2023/07/17 05:08:33;;;;;;;10.70;3.10;;;16.00;84.70;;;;;;5070413;28;20052;-45
2023/07/17 05:11:02;;;;;;;8.63;3.55;;;15.90;84.60;;;;;;5072539;28;20086;-44
2023/07/17 05:13:29;;;;;;;10.40;3.33;;;15.90;84.70;;;;;;5071034;28;20386;-44
2023/07/17 05:15:56;;;;;;;10.40;3.95;;;16.00;84.60;;;;;;5070447;28;20020;-45
2023/07/17 05:18:23;;;;;;;6.63;2.92;;;16.00;84.80;;;;;;5068163;28;20485;-45
2023/07/17 05:20:51;;;;;;;5.07;2.42;;;16.00;84.50;;;;;;5074598;28;20044;-44
2023/07/17 05:23:18;;;;;;;7.28;3.10;;;16.10;84.30;;;;;;5059357;28;20032;-44
2023/07/17 05:26:00;;;;;;;7.28;3.13;;;16.10;84.10;;;;;;5074126;28;20024;-43
2023/07/17 05:28:30;;;;;;;7.85;3.40;;;16.20;84.10;;;;;;5062596;28;20432;-43
2023/07/17 05:30:59;;;;;;;5.82;2.60;;;16.10;83.90;;;;;;5075244;28;20024;-46
2023/07/17 05:33:26;;;;;;;11.20;2.93;;;16.20;83.90;;;;;;5070874;28;20024;-43
2023/07/17 05:35:52;;;;;;;11.02;3.03;;;16.20;83.90;;;;;;5050837;28;20604;-43
2023/07/17 05:38:19;;;;;;;8.32;3.47;;;16.20;84.20;;;;;;5069175;28;20035;-45
2023/07/17 05:40:46;;;;;;;7.05;2.72;;;16.30;84.50;;;;;;5071946;28;20025;-43
2023/07/17 05:43:13;;;;;;;9.27;2.78;;;16.40;84.20;;;;;;5069808;28;20028;-43
2023/07/17 05:45:39;;;;;;;5.32;2.63;;;16.40;84.00;;;;;;5067645;28;20052;-45
2023/07/17 05:48:04;;;;;;;10.25;3.28;;;16.50;83.70;;;;;;5071628;28;20064;-43
2023/07/17 05:50:30;;;;;;;9.45;2.85;;;16.50;83.10;;;;;;5066485;28;20096;-44
2023/07/17 05:52:57;;;;;;;6.82;2.85;;;16.60;83.40;;;;;;5063649;28;20035;-45
2023/07/17 05:55:25;;;;;;;10.00;3.28;;;16.70;82.90;;;;;;5075882;28;20028;-44
2023/07/17 05:57:52;;;;;;;9.65;3.25;;;16.70;82.80;;;;;;5061788;28;20028;-46
2023/07/17 06:00:19;;;;;;;6.80;2.75;;;16.90;82.80;;;;;;5072883;28;20025;-47
2023/07/17 06:02:48;;;;;;;8.55;3.17;;;16.90;82.30;;;;;;5078571;28;20059;-45
2023/07/17 06:05:15;;;;;;;9.55;3.85;;;17.00;82.60;;;;;;5068164;28;20033;-46
2023/07/17 06:07:42;;;;;;;9.65;3.42;;;17.10;82.20;;;;;;5068019;28;20464;-47
2023/07/17 06:10:09;;;;;;;7.90;2.70;;;17.20;81.60;;;;;;5082961;28;20056;-47
2023/07/17 06:12:36;;;;;;;9.25;3.47;;;17.20;81.80;;;;;;5061044;28;20064;-48
2023/07/17 06:15:03;;;;;;;10.40;2.85;;;17.30;81.40;;;;;;5080406;28;20020;-47
2023/07/17 06:17:32;;;;;;;7.00;2.90;;;17.40;81.20;;;;;;5076314;28;20020;-47
2023/07/17 06:19:59;;;;;;;8.25;3.58;;;17.50;80.20;;;;;;5078868;28;20351;-45
2023/07/17 06:22:26;;;;;;;9.00;2.90;;;17.50;80.20;;;;;;5057481;28;20083;-45
2023/07/17 06:24:56;;;;;;;7.63;3.35;;;17.60;80.70;;;;;;5058799;28;20025;-46
2023/07/17 06:27:23;;;;;;;9.48;3.20;;;17.70;80.10;;;;;;5055121;28;20036;-50
2023/07/17 06:29:51;;;;;;;7.22;2.67;;;17.80;81.10;;;;;;5055649;28;20032;-46
2023/07/17 06:32:18;;;;;;;8.98;3.42;;;17.90;80.20;;;;;;5066569;28;20446;-47
2023/07/17 06:34:45;;;;;;;10.60;3.92;;;17.90;79.70;;;;;;5064519;28;20078;-46
2023/07/17 06:37:12;;;;;;;7.88;3.28;;;18.10;79.50;;;;;;5052066;28;20035;-46
2023/07/17 06:39:38;;;;;;;13.02;3.65;;;18.10;78.90;;;;;;5068148;28;20024;-46
2023/07/17 06:42:05;;;;;;;6.43;3.28;;;18.10;79.20;;;;;;5072477;28;20498;-47
2023/07/17 06:44:31;;;;;;;9.82;3.80;;;18.10;78.00;;;;;;5072645;28;20029;-50
2023/07/17 06:46:57;;;;;;;8.32;3.30;;;18.20;78.80;;;;;;5068060;28;20108;-46
2023/07/17 06:49:24;;;;;;;13.45;3.60;;;18.30;78.90;;;;;;5071725;28;20572;-46
2023/07/17 06:51:51;;;;;;;14.00;3.60;;;18.40;78.20;;;;;;5063438;28;20043;-48
2023/07/17 06:54:18;;;;;;;10.15;3.58;;;18.40;77.70;;;;;;5071665;28;20024;-47
2023/07/17 06:56:45;;;;;;;9.55;3.65;;;18.50;77.20;;;;;;5068531;28;20047;-47
2023/07/17 06:59:12;;;;;;;10.75;3.60;;;18.60;77.20;;;;;;5059090;28;20037;-49
2023/07/17 07:01:39;;;;;;;11.52;3.22;;;18.60;76.10;;;;;;5065150;28;20044;-51
2023/07/17 07:04:06;;;;;;;9.95;3.28;;;18.40;76.40;;;;;;5063085;28;20092;-47
2023/07/17 07:06:37;;;;;;;11.15;3.88;;;18.40;77.00;;;;;;5071281;28;20028;-51
2023/07/17 07:09:04;;;;;;;10.52;4.45;;;18.40;76.00;;;;;;5066951;28;20032;-50
2023/07/17 07:11:31;;;;;;;9.85;3.65;;;18.60;76.40;;;;;;5072348;28;20024;-47
2023/07/17 07:13:56;;;;;;;10.63;4.00;;;18.80;76.30;;;;;;5067688;28;20025;-47
2023/07/17 07:16:25;;;;;;;13.15;4.35;;;18.90;75.60;;;;;;5069616;28;20024;-46
2023/07/17 07:18:51;;;;;;;9.32;3.60;;;18.90;75.80;;;;;;5070995;28;20033;-46
2023/07/17 07:21:18;;;;;;;10.32;3.38;;;19.00;75.80;;;;;;5067941;28;20097;-47
2023/07/17 07:23:45;;;;;;;14.45;4.40;;;19.00;75.30;;;;;;5068099;28;20064;-50
2023/07/17 07:26:16;;;;;;;10.15;3.65;;;19.00;74.50;;;;;;5061788;28;20033;-47
2023/07/17 07:28:43;;;;;;;14.55;4.57;;;19.20;75.20;;;;;;5063782;28;20032;-48
2023/07/17 07:31:10;;;;;;;9.45;3.85;;;19.40;73.80;;;;;;5066213;28;20028;-47
2023/07/17 07:33:36;;;;;;;14.65;3.60;;;19.60;73.40;;;;;;5070299;28;20043;-50
2023/07/17 07:36:04;;;;;;;11.43;3.72;;;19.90;72.80;;;;;;5071112;28;20463;-50
2023/07/17 07:38:31;;;;;;;10.00;3.67;;;20.10;71.90;;;;;;5069098;28;20028;-48
2023/07/17 07:40:58;;;;;;;10.75;3.70;;;20.40;71.10;;;;;;5063988;28;20031;-50
2023/07/17 07:43:25;;;;;;;10.25;3.95;;;20.70;69.90;;;;;;5069202;28;20029;-48
2023/07/17 07:45:52;;;;;;;10.38;4.07;;;21.00;69.60;;;;;;5051342;28;20025;-50
2023/07/17 07:48:22;;;;;;;9.30;3.53;;;21.40;69.10;;;;;;5066232;28;20021;-51
2023/07/17 07:50:49;;;;;;;13.27;4.05;;;21.40;67.90;;;;;;5070875;28;20089;-48
2023/07/17 07:53:16;;;;;;;7.35;3.25;;;21.60;67.60;;;;;;5049723;28;20044;-50
2023/07/17 07:55:43;;;;;;;14.05;3.72;;;21.50;66.80;;;;;;5051729;28;20028;-51
2023/07/17 07:58:10;;;;;;;9.93;3.85;;;21.40;66.40;;;;;;5064883;28;20025;-48
2023/07/17 08:00:35;;;;;;;10.15;3.40;;;21.40;67.00;;;;;;5066771;28;20044;-51
2023/07/17 08:03:02;;;;;;;10.73;3.65;;;21.60;65.50;;;;;;5066240;28;20484;-48
2023/07/17 08:05:29;;;;;;;9.20;4.25;;;21.60;65.90;;;;;;5053707;28;20123;-52
2023/07/17 08:07:56;;;;;;;9.55;3.70;;;21.30;67.40;;;;;;5066542;28;20016;-51
2023/07/17 08:10:23;;;;;;;10.18;4.85;;;20.90;67.20;;;;;;5058120;28;20032;-50
2023/07/17 08:12:50;;;;;;;8.05;3.53;;;21.50;66.50;;;;;;5070926;28;20024;-48
2023/07/17 08:15:17;;;;;;;7.82;3.03;;;21.80;65.40;;;;;;5072661;28;20028;-51
2023/07/17 08:17:44;;;;;;;7.30;2.95;;;21.90;64.70;;;;;;5073222;28;20433;-51
2023/07/17 08:20:09;;;;;;;10.20;4.50;;;22.30;65.20;;;;;;5070836;28;20097;-48
2023/07/17 08:22:37;;;;;;;11.02;4.10;;;22.00;63.90;;;;;;5071069;28;20025;-50
2023/07/17 08:25:05;;;;;;;11.02;3.88;;;21.90;65.00;;;;;;5069653;28;20424;-49
2023/07/17 08:27:36;;;;;;;7.53;3.20;;;22.00;64.00;;;;;;5070342;28;20056;-51
2023/07/17 08:30:07;;;;;;;8.10;3.45;;;22.10;65.90;;;;;;5067969;28;20451;-52
2023/07/17 08:32:32;;;;;;;8.05;3.47;;;22.20;64.00;;;;;;5065326;28;20036;-51
2023/07/17 08:34:59;;;;;;;8.60;3.92;;;22.00;64.50;;;;;;5069134;28;20430;-49
2023/07/17 08:37:26;;;;;;;9.60;3.67;;;21.90;64.90;;;;;;5061339;28;20028;-50
2023/07/17 08:39:53;;;;;;;10.25;3.95;;;21.90;65.00;;;;;;5064501;28;20025;-51
2023/07/17 08:42:23;;;;;;;9.07;3.60;;;22.30;65.50;;;;;;5058395;28;20036;-52
2023/07/17 08:44:52;;;;;;;8.48;3.15;;;22.40;64.10;;;;;;5070593;28;20036;-49
2023/07/17 08:47:19;;;;;;;10.60;3.80;;;22.40;62.20;;;;;;5052648;28;20733;-48
2023/07/17 08:49:47;;;;;;;10.68;4.50;;;22.20;63.80;;;;;;5070569;28;20275;-49
2023/07/17 08:52:16;;;;;;;12.85;4.65;;;21.60;63.90;;;;;;5053114;28;20032;-48
2023/07/17 08:54:42;;;;;;;10.80;3.65;;;20.90;66.10;;;;;;5069532;28;20433;-50
2023/07/17 08:57:10;;;;;;;9.13;3.65;;;20.00;71.20;;;;;;5064129;28;21002;-50
2023/07/17 08:59:41;;;;;;;7.22;2.38;;;18.50;76.70;;;;;;5062065;28;20122;-49
2023/07/17 09:02:08;;;;;;;3.92;1.90;;;17.60;78.40;;;;;;5070401;28;20029;-46
2023/07/17 09:04:35;;;;;;;5.22;2.22;;;17.20;80.30;;;;;;5067970;28;20060;-46
2023/07/17 09:07:03;;;;;;;5.57;2.13;;;16.60;81.20;;;;;;5069838;28;20082;-45
2023/07/17 09:09:30;;;;;;;3.80;1.83;;;16.40;83.50;;;;;;5064650;28;20055;-45
2023/07/17 09:12:16;;;;;;;7.80;1.83;;;16.50;84.10;;;;;;5060641;28;20192;-48
2023/07/17 09:14:41;;;;;;;7.40;2.40;;;16.50;84.20;;;;;;5062841;28;20025;-44
2023/07/17 09:17:13;;;;;;;7.20;2.28;;;16.70;83.90;;;;;;5068425;28;20206;-44
2023/07/17 09:19:39;;;;;;;5.13;1.90;;;16.90;84.50;;;;;;5066733;28;20021;-44
2023/07/17 09:22:07;;;;;;;6.90;2.22;;;17.30;83.20;;;;;;5077076;28;21287;-45
2023/07/17 09:24:34;;;;;;;5.00;1.80;;;17.40;82.80;;;;;;5054396;28;20481;-45
2023/07/17 09:27:05;;;;;;;4.82;2.08;;;17.30;82.00;;;;;;5058957;28;20036;-46
2023/07/17 09:29:32;;;;;;;5.80;2.35;;;17.40;83.90;;;;;;5069199;28;20104;-46
2023/07/17 09:32:21;;;;;;;4.20;1.85;;;17.90;84.20;;;;;;5055351;28;20048;-46
2023/07/17 09:34:55;;;;;;;3.70;1.63;;;18.20;82.20;;;;;;5073559;28;20074;-47
2023/07/17 09:37:20;;;;;;;5.30;2.10;;;18.30;81.90;;;;;;5072506;28;20071;-46
2023/07/17 09:39:51;;;;;;;4.57;1.85;;;18.30;80.10;;;;;;5050680;28;20033;-52
2023/07/17 09:42:25;;;;;;;4.80;2.40;;;18.30;81.50;;;;;;5062479;28;20029;-48
2023/07/17 09:44:53;;;;;;;4.53;1.85;;;18.40;81.20;;;;;;5070921;28;20055;-48
2023/07/17 09:47:21;;;;;;;6.18;2.70;;;18.40;80.90;;;;;;5053465;28;20029;-49
2023/07/17 09:49:51;;;;;;;5.13;2.50;;;18.90;80.40;;;;;;5081834;28;20028;-49
2023/07/17 09:52:19;;;;;;;6.60;2.40;;;18.90;80.90;;;;;;5073193;28;20060;-51
2023/07/17 09:54:48;;;;;;;6.78;2.80;;;18.90;79.90;;;;;;5077999;28;20020;-51
2023/07/17 09:57:38;;;;;;;7.20;2.97;;;18.90;78.40;;;;;;5071219;28;20029;-55
2023/07/17 10:00:11;;;;;;;;;;;18.90;80.30;;;;;;5071342;28;20024;-55
2023/07/17 10:03:09;;;;;;;8.20;3.65;;;19.00;79.30;;;;;;5071157;28;19991;-54
2023/07/17 10:05:37;;;;;;;6.72;3.22;;;18.90;79.00;;;;;;5069141;28;20036;-52
2023/07/17 10:08:06;;;;;;;7.93;3.42;;;19.00;79.50;;;;;;5071869;28;20028;-54
2023/07/17 10:10:34;;;;;;;6.93;3.38;;;19.10;79.40;;;;;;5070983;28;20771;-55
2023/07/17 10:13:01;;;;;;;7.47;3.28;;;19.20;80.40;;;;;;5044379;28;20033;-51
2023/07/17 10:15:30;;;;;;;6.85;3.30;;;19.30;80.50;;;;;;5071212;28;20028;-55
2023/07/17 10:17:58;;;;;;;8.48;3.30;;;19.10;78.40;;;;;;5069289;28;20082;-51
2023/07/17 10:20:31;;;;;;;7.03;3.45;;;19.20;79.50;;;;;;5068500;28;20131;-52
2023/07/17 10:23:00;;;;;;;6.13;2.92;;;19.50;79.70;;;;;;5057891;28;20036;-52
2023/07/17 10:25:28;;;;;;;6.35;2.88;;;19.90;80.80;;;;;;5061953;28;20442;-52
2023/07/17 10:28:12;;;;;;;7.25;3.25;;;20.00;78.80;;;;;;5050802;28;20068;-52
2023/07/17 10:30:48;;;;;;;6.95;3.80;;;20.00;77.80;;;;;;5052049;28;20051;-53
2023/07/17 10:33:16;;;;;;;7.55;3.75;;;20.00;79.30;;;;;;5052941;28;20060;-54
2023/07/17 10:35:51;;;;;;;7.88;3.83;;;19.90;78.80;;;;;;5055384;28;20366;-42
2023/07/17 10:38:28;;;;;;;7.68;4.03;;;19.70;79.10;;;;;;5065578;28;20484;-47
2023/07/17 10:41:04;;;;;;;9.90;3.63;;;19.40;80.50;;;;;;5053654;28;20190;-47
2023/07/17 10:43:34;;;;;;;8.30;3.75;;;19.10;81.80;;;;;;5071469;28;20487;-45
2023/07/17 10:46:08;;;;;;;8.65;3.60;;;19.10;82.60;;;;;;5048156;28;20035;-45
2023/07/17 10:48:35;;;;;;;9.13;3.90;;;19.20;82.90;;;;;;5070217;28;20024;-46
2023/07/17 10:51:02;;;;;;;7.85;3.95;;;19.40;82.60;;;;;;5063283;28;20522;-48
2023/07/17 10:53:31;;;;;;;7.80;4.25;;;19.40;83.00;;;;;;5067063;28;20128;-46
2023/07/17 10:55:58;;;;;;;8.90;4.20;;;19.70;83.50;;;;;;5066676;28;20400;-47
2023/07/17 10:58:28;;;;;;;10.13;4.25;;;19.80;82.80;;;;;;5069002;28;20082;-48
2023/07/17 11:00:55;;;;;;;8.50;3.60;;;20.10;81.70;;;;;;5065335;28;20378;-49
2023/07/17 11:03:23;;;;;;;7.90;3.63;;;20.50;82.10;;;;;;5061209;28;20025;-49
2023/07/17 11:05:53;;;;;;;9.40;3.90;;;20.80;81.80;;;;;;5071870;28;20040;-54
2023/07/17 11:08:20;;;;;;;7.93;3.13;;;21.20;80.90;;;;;;5074556;28;20056;-52
2023/07/17 11:10:49;;;;;;;7.28;3.90;;;21.70;81.10;;;;;;5065737;28;20037;-53
2023/07/17 11:13:17;;;;;;;8.15;3.25;;;21.90;76.70;;;;;;5066242;28;20081;-50
2023/07/17 11:15:44;;;;;;;7.57;3.78;;;21.70;74.60;;;;;;5065003;28;20037;-53
2023/07/17 11:18:11;;;;;;;7.47;3.28;;;21.50;75.50;;;;;;5066639;28;20127;-52
2023/07/17 11:20:39;;;;;;;7.07;3.22;;;21.20;74.40;;;;;;5073353;28;20544;-54
2023/07/17 11:23:10;;;;;;;8.70;3.58;;;20.70;74.70;;;;;;5074257;28;20024;-52
2023/07/17 11:25:38;;;;;;;6.28;3.45;;;20.30;76.00;;;;;;5067846;28;20096;-54
2023/07/17 11:28:07;;;;;;;9.05;3.50;;;19.90;77.60;;;;;;5064177;28;20036;-54
2023/07/17 11:30:34;;;;;;;8.30;3.47;;;19.60;77.00;;;;;;5069965;28;20032;-54
2023/07/17 11:33:07;;;;;;;6.43;3.25;;;19.40;78.40;;;;;;5073127;28;20079;-53
2023/07/17 11:35:52;;;;;;;8.70;4.00;;;19.30;79.00;;;;;;5069638;28;20040;-51
2023/07/17 11:38:20;;;;;;;7.90;3.38;;;19.40;79.80;;;;;;5067869;28;20029;-53
2023/07/17 11:41:05;;;;;;;7.47;3.30;;;19.40;79.80;;;;;;5048958;28;20024;-51
2023/07/17 11:43:32;;;;;;;5.40;3.15;;;19.60;80.70;;;;;;5072518;28;20032;-50
2023/07/17 11:46:02;;;;;;;6.40;3.05;;;19.70;79.00;;;;;;5064644;28;20040;-50
2023/07/17 11:48:32;;;;;;;11.00;3.25;;;19.70;77.80;;;;;;5065757;28;20029;-50
2023/07/17 11:51:00;;;;;;;7.97;2.95;;;19.60;77.00;;;;;;5060337;28;20577;-52
2023/07/17 11:53:29;;;;;;;6.07;2.65;;;19.50;75.10;;;;;;5064093;28;20536;-53
2023/07/17 11:55:59;;;;;;;9.02;3.58;;;19.90;75.20;;;;;;5064187;28;20029;-53
2023/07/17 11:58:34;;;;;;;6.55;2.40;;;20.10;73.50;;;;;;5065794;28;20028;-50
2023/07/17 12:01:03;;;;;;;9.35;2.72;;;20.10;72.60;;;;;;5062368;28;20032;-52
2023/07/17 12:03:30;;;;;;;8.35;2.78;;;20.00;73.20;;;;;;5063180;28;20028;-56
2023/07/17 12:06:00;;;;;;;9.07;3.47;;;19.80;74.30;;;;;;5069583;28;20029;-49
2023/07/17 12:08:27;;;;;;;;;;;19.70;73.10;;;;;;5068957;28;20032;-50
2023/07/17 12:10:54;;;;;;;6.07;2.20;;;19.80;73.30;;;;;;5053666;28;20415;-52
2023/07/17 12:13:21;;;;;;;8.00;3.20;;;19.80;71.80;;;;;;5076039;28;20036;-51
2023/07/17 12:15:50;;;;;;;9.18;2.97;;;20.10;71.80;;;;;;5051215;28;20525;-51
2023/07/17 12:18:17;;;;;;;6.50;3.17;;;20.60;71.70;;;;;;5070952;28;20024;-52
2023/07/17 12:20:44;;;;;;;5.95;2.67;;;21.20;73.20;;;;;;5067189;28;20048;-50
2023/07/17 12:23:14;;;;;;;5.13;2.20;;;21.60;71.20;;;;;;5065840;28;20155;-48
2023/07/17 12:25:45;;;;;;;7.40;2.53;;;21.60;65.40;;;;;;5067754;28;20056;-51
2023/07/17 12:28:12;;;;;;;4.65;1.88;;;21.60;65.50;;;;;;5070667;28;20024;-51
2023/07/17 12:30:39;;;;;;;6.93;2.70;;;21.70;68.00;;;;;;5069649;28;20036;-48
2023/07/17 12:33:08;;;;;;;7.68;2.58;;;21.90;66.60;;;;;;5063870;28;20033;-51
2023/07/17 12:35:35;;;;;;;7.40;3.00;;;21.70;66.60;;;;;;5071267;28;20028;-49
2023/07/17 12:38:04;;;;;;;5.57;2.55;;;21.60;67.00;;;;;;5068499;28;20046;-51
2023/07/17 12:40:30;;;;;;;7.47;2.17;;;21.80;65.90;;;;;;5069301;28;20029;-49
2023/07/17 12:42:57;;;;;;;6.75;2.33;;;21.90;66.00;;;;;;5066174;28;20044;-49
2023/07/17 12:45:24;;;;;;;6.35;2.63;;;21.90;64.70;;;;;;5050438;28;20032;-47
2023/07/17 12:47:51;;;;;;;10.73;2.97;;;21.70;64.40;;;;;;5067674;28;20075;-48
2023/07/17 12:50:16;;;;;;;5.82;2.13;;;21.80;63.30;;;;;;5067153;28;20021;-50